sensor_id;sensor_type;location;lat;lon;timestamp;temperature;humidity
7004;DHT22;3542;48.812;9.146;2022-12-18T00:01:50;-9.40;99.90
7004;DHT22;3542;48.812;9.146;2022-12-18T00:04:21;-9.40;99.90
7004;DHT22;3542;48.812;9.146;2022-12-18T00:06:47;-9.50;99.90
7004;DHT22;3542;48.812;9.146;2022-12-18T00:09:12;-9.50;99.90
7004;DHT22;3542;48.812;9.146;2022-12-18T00:11:38;-9.50;99.90
7004;DHT22;3542;48.812;9.146;2022-12-18T00:14:03;-9.40;99.90
7004;DHT22;3542;48.812;9.146;2022-12-18T00:16:29;-9.50;99.90
7004;DHT22;3542;48.812;9.146;2022-12-18T00:18:58;-9.40;99.90
7004;DHT22;3542;48.812;9.146;2022-12-18T00:21:25;-9.50;99.90
7004;DHT22;3542;48.812;9.146;2022-12-18T00:23:51;-9.50;99.90
7004;DHT22;3542;48.812;9.146;2022-12-18T00:26:22;-9.50;99.90
7004;DHT22;3542;48.812;9.146;2022-12-18T00:28:48;-9.50;99.90
7004;DHT22;3542;48.812;9.146;2022-12-18T00:31:20;-9.60;99.90
7004;DHT22;3542;48.812;9.146;2022-12-18T00:33:46;-9.60;99.90
7004;DHT22;3542;48.812;9.146;2022-12-18T00:36:14;-9.60;99.90
7004;DHT22;3542;48.812;9.146;2022-12-18T00:38:41;-9.60;99.90
7004;DHT22;3542;48.812;9.146;2022-12-18T00:41:10;-9.60;99.90
7004;DHT22;3542;48.812;9.146;2022-12-18T00:43:37;-9.60;99.90
7004;DHT22;3542;48.812;9.146;2022-12-18T00:46:03;-9.70;99.90
7004;DHT22;3542;48.812;9.146;2022-12-18T00:48:28;-9.60;99.90
7004;DHT22;3542;48.812;9.146;2022-12-18T00:50:54;-9.50;99.90
7004;DHT22;3542;48.812;9.146;2022-12-18T00:53:20;-9.60;99.90
7004;DHT22;3542;48.812;9.146;2022-12-18T00:55:46;-9.70;99.90
7004;DHT22;3542;48.812;9.146;2022-12-18T00:58:12;-9.70;99.90
7004;DHT22;3542;48.812;9.146;2022-12-18T01:00:38;-9.70;99.90
7004;DHT22;3542;48.812;9.146;2022-12-18T01:03:04;-9.80;99.90
7004;DHT22;3542;48.812;9.146;2022-12-18T01:05:30;-9.70;99.90
7004;DHT22;3542;48.812;9.146;2022-12-18T01:07:56;-9.80;99.90
7004;DHT22;3542;48.812;9.146;2022-12-18T01:10:22;-9.80;99.90
7004;DHT22;3542;48.812;9.146;2022-12-18T01:12:47;-9.90;99.90
7004;DHT22;3542;48.812;9.146;2022-12-18T01:15:14;-9.90;99.90
7004;DHT22;3542;48.812;9.146;2022-12-18T01:17:40;-9.90;99.90
7004;DHT22;3542;48.812;9.146;2022-12-18T01:20:07;-10.00;99.90
7004;DHT22;3542;48.812;9.146;2022-12-18T01:22:32;-10.00;99.90
7004;DHT22;3542;48.812;9.146;2022-12-18T01:24:58;-10.00;99.90
7004;DHT22;3542;48.812;9.146;2022-12-18T01:27:23;-10.00;99.90
7004;DHT22;3542;48.812;9.146;2022-12-18T01:29:49;-10.00;99.90
7004;DHT22;3542;48.812;9.146;2022-12-18T01:32:15;-10.00;99.90
7004;DHT22;3542;48.812;9.146;2022-12-18T01:34:40;-10.00;99.90
7004;DHT22;3542;48.812;9.146;2022-12-18T01:37:06;-10.00;99.90
7004;DHT22;3542;48.812;9.146;2022-12-18T01:39:32;-10.00;99.90
7004;DHT22;3542;48.812;9.146;2022-12-18T01:42:08;-10.10;99.90
7004;DHT22;3542;48.812;9.146;2022-12-18T01:52:34;-10.00;99.90
7004;DHT22;3542;48.812;9.146;2022-12-18T01:55:03;-10.10;99.90
7004;DHT22;3542;48.812;9.146;2022-12-18T01:57:30;-10.10;99.90
7004;DHT22;3542;48.812;9.146;2022-12-18T02:00:00;-10.00;99.90
7004;DHT22;3542;48.812;9.146;2022-12-18T03:33:12;-8.90;99.90
7004;DHT22;3542;48.812;9.146;2022-12-18T03:35:42;-9.00;99.90
7004;DHT22;3542;48.812;9.146;2022-12-18T03:38:08;-9.00;99.90
7004;DHT22;3542;48.812;9.146;2022-12-18T03:43:53;-9.20;99.90
7004;DHT22;3542;48.812;9.146;2022-12-18T03:46:30;-9.20;99.90
7004;DHT22;3542;48.812;9.146;2022-12-18T03:49:08;-9.20;99.90
7004;DHT22;3542;48.812;9.146;2022-12-18T03:51:50;-9.30;99.90
7004;DHT22;3542;48.812;9.146;2022-12-18T03:54:18;-9.30;99.90
7004;DHT22;3542;48.812;9.146;2022-12-18T03:56:48;-9.30;99.90
7004;DHT22;3542;48.812;9.146;2022-12-18T03:59:17;-9.40;99.90
7004;DHT22;3542;48.812;9.146;2022-12-18T04:01:49;-9.40;99.90
7004;DHT22;3542;48.812;9.146;2022-12-18T04:04:18;-9.50;99.90
7004;DHT22;3542;48.812;9.146;2022-12-18T04:06:45;-9.50;99.90
7004;DHT22;3542;48.812;9.146;2022-12-18T04:09:12;-9.50;99.90
7004;DHT22;3542;48.812;9.146;2022-12-18T04:11:40;-9.60;99.90
7004;DHT22;3542;48.812;9.146;2022-12-18T04:14:06;-9.70;99.90
7004;DHT22;3542;48.812;9.146;2022-12-18T04:16:31;-9.70;99.90
7004;DHT22;3542;48.812;9.146;2022-12-18T04:18:57;-9.70;99.90
7004;DHT22;3542;48.812;9.146;2022-12-18T04:21:22;-9.80;99.90
7004;DHT22;3542;48.812;9.146;2022-12-18T04:23:48;-9.80;99.90
7004;DHT22;3542;48.812;9.146;2022-12-18T04:26:14;-9.80;99.90
7004;DHT22;3542;48.812;9.146;2022-12-18T04:28:39;-9.80;99.90
7004;DHT22;3542;48.812;9.146;2022-12-18T04:31:05;-9.90;99.90
7004;DHT22;3542;48.812;9.146;2022-12-18T04:33:31;-9.90;99.90
7004;DHT22;3542;48.812;9.146;2022-12-18T04:35:56;-9.90;99.90
7004;DHT22;3542;48.812;9.146;2022-12-18T04:38:22;-9.90;99.90
7004;DHT22;3542;48.812;9.146;2022-12-18T04:40:47;-9.90;99.90
7004;DHT22;3542;48.812;9.146;2022-12-18T04:43:13;-9.90;99.90
7004;DHT22;3542;48.812;9.146;2022-12-18T04:45:38;-9.80;99.90
7004;DHT22;3542;48.812;9.146;2022-12-18T04:48:04;-9.80;99.90
7004;DHT22;3542;48.812;9.146;2022-12-18T04:50:30;-9.80;99.90
7004;DHT22;3542;48.812;9.146;2022-12-18T04:52:56;-9.70;99.90
7004;DHT22;3542;48.812;9.146;2022-12-18T04:55:21;-9.50;99.90
7004;DHT22;3542;48.812;9.146;2022-12-18T04:57:50;-9.30;99.90
7004;DHT22;3542;48.812;9.146;2022-12-18T05:00:16;-9.00;99.90
7004;DHT22;3542;48.812;9.146;2022-12-18T05:02:41;-8.80;99.90
7004;DHT22;3542;48.812;9.146;2022-12-18T05:05:07;-8.70;99.90
7004;DHT22;3542;48.812;9.146;2022-12-18T05:07:33;-8.60;99.90
7004;DHT22;3542;48.812;9.146;2022-12-18T05:09:59;-8.50;99.90
7004;DHT22;3542;48.812;9.146;2022-12-18T05:12:24;-8.40;99.90
7004;DHT22;3542;48.812;9.146;2022-12-18T05:14:50;-8.40;99.90
7004;DHT22;3542;48.812;9.146;2022-12-18T05:17:16;-8.40;99.90
7004;DHT22;3542;48.812;9.146;2022-12-18T05:19:41;-8.40;99.90
7004;DHT22;3542;48.812;9.146;2022-12-18T05:22:07;-8.40;99.90
7004;DHT22;3542;48.812;9.146;2022-12-18T05:24:33;-8.40;99.90
7004;DHT22;3542;48.812;9.146;2022-12-18T05:26:59;-8.40;99.90
7004;DHT22;3542;48.812;9.146;2022-12-18T05:29:24;-8.50;99.90
7004;DHT22;3542;48.812;9.146;2022-12-18T05:31:50;-8.50;99.90
7004;DHT22;3542;48.812;9.146;2022-12-18T05:34:16;-8.60;99.90
7004;DHT22;3542;48.812;9.146;2022-12-18T05:36:41;-8.50;99.90
7004;DHT22;3542;48.812;9.146;2022-12-18T05:39:07;-8.60;99.90
7004;DHT22;3542;48.812;9.146;2022-12-18T05:41:32;-8.70;99.90
7004;DHT22;3542;48.812;9.146;2022-12-18T05:43:58;-8.70;99.90
7004;DHT22;3542;48.812;9.146;2022-12-18T05:46:24;-8.70;99.90
7004;DHT22;3542;48.812;9.146;2022-12-18T05:48:50;-8.80;99.90
7004;DHT22;3542;48.812;9.146;2022-12-18T05:51:19;-8.70;99.90
7004;DHT22;3542;48.812;9.146;2022-12-18T05:53:45;-8.70;99.90
7004;DHT22;3542;48.812;9.146;2022-12-18T05:56:13;-8.60;99.90
7004;DHT22;3542;48.812;9.146;2022-12-18T05:58:40;-8.50;99.90
7004;DHT22;3542;48.812;9.146;2022-12-18T06:01:17;-8.60;99.90
7004;DHT22;3542;48.812;9.146;2022-12-18T06:03:43;-8.70;99.90
7004;DHT22;3542;48.812;9.146;2022-12-18T06:06:26;-8.80;99.90
7004;DHT22;3542;48.812;9.146;2022-12-18T06:08:52;-8.80;99.90
7004;DHT22;3542;48.812;9.146;2022-12-18T06:11:27;-8.90;99.90
7004;DHT22;3542;48.812;9.146;2022-12-18T06:13:54;-8.90;99.90
7004;DHT22;3542;48.812;9.146;2022-12-18T06:16:20;-9.00;99.90
7004;DHT22;3542;48.812;9.146;2022-12-18T06:18:46;-9.00;99.90
7004;DHT22;3542;48.812;9.146;2022-12-18T06:21:11;-9.10;99.90
7004;DHT22;3542;48.812;9.146;2022-12-18T06:23:37;-9.20;99.90
7004;DHT22;3542;48.812;9.146;2022-12-18T06:26:07;-9.20;99.90
7004;DHT22;3542;48.812;9.146;2022-12-18T06:28:33;-9.30;99.90
7004;DHT22;3542;48.812;9.146;2022-12-18T06:30:58;-9.30;99.90
7004;DHT22;3542;48.812;9.146;2022-12-18T06:33:26;-9.40;99.90
7004;DHT22;3542;48.812;9.146;2022-12-18T06:35:52;-9.40;99.90
7004;DHT22;3542;48.812;9.146;2022-12-18T06:38:18;-9.40;99.90
7004;DHT22;3542;48.812;9.146;2022-12-18T06:40:43;-9.50;99.90
7004;DHT22;3542;48.812;9.146;2022-12-18T06:43:09;-9.50;99.90
7004;DHT22;3542;48.812;9.146;2022-12-18T06:45:34;-9.60;99.90
7004;DHT22;3542;48.812;9.146;2022-12-18T06:48:00;-9.60;99.90
7004;DHT22;3542;48.812;9.146;2022-12-18T06:50:26;-9.60;99.90
7004;DHT22;3542;48.812;9.146;2022-12-18T06:52:51;-9.70;99.90
7004;DHT22;3542;48.812;9.146;2022-12-18T06:55:17;-9.70;99.90
7004;DHT22;3542;48.812;9.146;2022-12-18T06:57:42;-9.70;99.90
7004;DHT22;3542;48.812;9.146;2022-12-18T07:00:08;-9.70;99.90
7004;DHT22;3542;48.812;9.146;2022-12-18T07:02:34;-9.80;99.90
7004;DHT22;3542;48.812;9.146;2022-12-18T07:05:00;-9.80;99.90
7004;DHT22;3542;48.812;9.146;2022-12-18T07:07:26;-9.80;99.90
7004;DHT22;3542;48.812;9.146;2022-12-18T07:09:51;-9.80;99.90
7004;DHT22;3542;48.812;9.146;2022-12-18T07:12:17;-9.90;99.90
7004;DHT22;3542;48.812;9.146;2022-12-18T07:14:43;-9.90;99.90
7004;DHT22;3542;48.812;9.146;2022-12-18T07:17:08;-9.80;99.90
7004;DHT22;3542;48.812;9.146;2022-12-18T07:19:34;-9.80;99.90
7004;DHT22;3542;48.812;9.146;2022-12-18T07:22:00;-9.80;99.90
7004;DHT22;3542;48.812;9.146;2022-12-18T07:24:25;-9.80;99.90
7004;DHT22;3542;48.812;9.146;2022-12-18T07:26:51;-9.70;99.90
7004;DHT22;3542;48.812;9.146;2022-12-18T07:29:16;-9.70;99.90
7004;DHT22;3542;48.812;9.146;2022-12-18T07:31:42;-9.70;99.90
7004;DHT22;3542;48.812;9.146;2022-12-18T07:34:12;-9.70;99.90
7004;DHT22;3542;48.812;9.146;2022-12-18T07:36:38;-9.60;99.90
7004;DHT22;3542;48.812;9.146;2022-12-18T07:39:04;-9.60;99.90
7004;DHT22;3542;48.812;9.146;2022-12-18T07:41:29;-9.50;99.90
7004;DHT22;3542;48.812;9.146;2022-12-18T07:43:55;-9.50;99.90
7004;DHT22;3542;48.812;9.146;2022-12-18T07:46:21;-9.50;99.90
7004;DHT22;3542;48.812;9.146;2022-12-18T07:48:46;-9.40;99.90
7004;DHT22;3542;48.812;9.146;2022-12-18T07:51:13;-9.30;99.90
7004;DHT22;3542;48.812;9.146;2022-12-18T07:53:39;-9.20;99.90
7004;DHT22;3542;48.812;9.146;2022-12-18T07:56:07;-9.20;99.90
7004;DHT22;3542;48.812;9.146;2022-12-18T07:58:34;-9.10;99.90
7004;DHT22;3542;48.812;9.146;2022-12-18T08:03:29;-9.00;99.90
7004;DHT22;3542;48.812;9.146;2022-12-18T08:05:59;-9.00;99.90
7004;DHT22;3542;48.812;9.146;2022-12-18T08:08:24;-8.90;99.90
7004;DHT22;3542;48.812;9.146;2022-12-18T08:10:50;-8.90;99.90
7004;DHT22;3542;48.812;9.146;2022-12-18T08:13:15;-8.80;99.90
7004;DHT22;3542;48.812;9.146;2022-12-18T08:15:41;-8.60;99.90
7004;DHT22;3542;48.812;9.146;2022-12-18T08:18:06;-8.60;99.90
7004;DHT22;3542;48.812;9.146;2022-12-18T08:20:32;-8.50;99.90
7004;DHT22;3542;48.812;9.146;2022-12-18T08:22:57;-8.40;99.90
7004;DHT22;3542;48.812;9.146;2022-12-18T08:25:23;-8.30;99.90
7004;DHT22;3542;48.812;9.146;2022-12-18T08:27:49;-8.10;99.90
7004;DHT22;3542;48.812;9.146;2022-12-18T08:30:14;-7.80;99.90
7004;DHT22;3542;48.812;9.146;2022-12-18T08:32:40;-7.60;99.90
7004;DHT22;3542;48.812;9.146;2022-12-18T08:35:06;-7.40;99.90
7004;DHT22;3542;48.812;9.146;2022-12-18T08:37:33;-7.20;99.90
7004;DHT22;3542;48.812;9.146;2022-12-18T08:39:58;-7.00;99.90
7004;DHT22;3542;48.812;9.146;2022-12-18T08:42:24;-6.90;99.90
7004;DHT22;3542;48.812;9.146;2022-12-18T08:45:08;-6.80;99.90
7004;DHT22;3542;48.812;9.146;2022-12-18T08:47:34;-6.70;99.90
7004;DHT22;3542;48.812;9.146;2022-12-18T08:50:00;-6.50;99.90
7004;DHT22;3542;48.812;9.146;2022-12-18T08:52:25;-6.40;99.90
7004;DHT22;3542;48.812;9.146;2022-12-18T08:54:51;-6.20;99.90
7004;DHT22;3542;48.812;9.146;2022-12-18T08:57:16;-6.10;99.90
7004;DHT22;3542;48.812;9.146;2022-12-18T08:59:42;-5.90;99.90
7004;DHT22;3542;48.812;9.146;2022-12-18T09:02:10;-5.80;99.90
7004;DHT22;3542;48.812;9.146;2022-12-18T09:04:36;-5.70;99.90
7004;DHT22;3542;48.812;9.146;2022-12-18T09:07:01;-5.60;99.90
7004;DHT22;3542;48.812;9.146;2022-12-18T09:09:27;-5.50;99.90
7004;DHT22;3542;48.812;9.146;2022-12-18T09:11:56;-5.40;99.90
7004;DHT22;3542;48.812;9.146;2022-12-18T09:14:22;-5.10;99.90
7004;DHT22;3542;48.812;9.146;2022-12-18T09:16:48;-4.60;99.90
7004;DHT22;3542;48.812;9.146;2022-12-18T09:19:20;-4.10;99.90
7004;DHT22;3542;48.812;9.146;2022-12-18T09:21:58;-3.60;99.90
7004;DHT22;3542;48.812;9.146;2022-12-18T09:24:30;-2.70;99.90
7004;DHT22;3542;48.812;9.146;2022-12-18T09:27:01;-2.30;99.90
7004;DHT22;3542;48.812;9.146;2022-12-18T09:29:37;-1.90;99.90
7004;DHT22;3542;48.812;9.146;2022-12-18T09:34:39;-1.50;99.90
7004;DHT22;3542;48.812;9.146;2022-12-18T09:37:07;-1.20;99.90
7004;DHT22;3542;48.812;9.146;2022-12-18T09:39:36;-1.50;99.90
7004;DHT22;3542;48.812;9.146;2022-12-18T09:42:04;-1.40;99.90
7004;DHT22;3542;48.812;9.146;2022-12-18T09:44:51;-1.40;99.90
7004;DHT22;3542;48.812;9.146;2022-12-18T09:47:37;-1.50;99.90
7004;DHT22;3542;48.812;9.146;2022-12-18T09:50:23;-1.10;99.90
7004;DHT22;3542;48.812;9.146;2022-12-18T09:52:58;-0.80;99.90
7004;DHT22;3542;48.812;9.146;2022-12-18T09:55:31;-1.10;99.90
7004;DHT22;3542;48.812;9.146;2022-12-18T09:58:33;-0.90;99.90
7004;DHT22;3542;48.812;9.146;2022-12-18T10:01:14;-0.90;99.90
7004;DHT22;3542;48.812;9.146;2022-12-18T10:03:42;-0.80;99.90
7004;DHT22;3542;48.812;9.146;2022-12-18T10:06:51;-0.50;99.90
7004;DHT22;3542;48.812;9.146;2022-12-18T10:12:25;-0.10;99.90
7004;DHT22;3542;48.812;9.146;2022-12-18T10:18:33;0.10;99.90
7004;DHT22;3542;48.812;9.146;2022-12-18T10:21:09;0.20;99.90
7004;DHT22;3542;48.812;9.146;2022-12-18T10:26:44;0.30;99.90
7004;DHT22;3542;48.812;9.146;2022-12-18T10:29:12;0.30;99.90
7004;DHT22;3542;48.812;9.146;2022-12-18T10:31:39;0.40;99.90
7004;DHT22;3542;48.812;9.146;2022-12-18T10:34:12;0.40;99.90
7004;DHT22;3542;48.812;9.146;2022-12-18T10:36:38;0.30;99.90
7004;DHT22;3542;48.812;9.146;2022-12-18T10:39:20;0.30;99.90
7004;DHT22;3542;48.812;9.146;2022-12-18T10:41:47;0.30;99.90
7004;DHT22;3542;48.812;9.146;2022-12-18T10:44:19;0.10;99.90
7004;DHT22;3542;48.812;9.146;2022-12-18T10:46:48;0.30;99.90
7004;DHT22;3542;48.812;9.146;2022-12-18T10:49:21;0.40;99.90
7004;DHT22;3542;48.812;9.146;2022-12-18T10:51:48;0.40;99.90
7004;DHT22;3542;48.812;9.146;2022-12-18T10:54:17;0.30;99.90
7004;DHT22;3542;48.812;9.146;2022-12-18T10:56:44;0.00;99.90
7004;DHT22;3542;48.812;9.146;2022-12-18T10:59:13;-0.10;99.90
7004;DHT22;3542;48.812;9.146;2022-12-18T11:01:56;0.00;99.90
7004;DHT22;3542;48.812;9.146;2022-12-18T11:04:27;0.10;99.90
7004;DHT22;3542;48.812;9.146;2022-12-18T11:09:26;0.40;99.90
7004;DHT22;3542;48.812;9.146;2022-12-18T11:11:54;0.10;99.90
7004;DHT22;3542;48.812;9.146;2022-12-18T11:14:26;0.30;99.90
7004;DHT22;3542;48.812;9.146;2022-12-18T11:16:54;0.10;99.90
7004;DHT22;3542;48.812;9.146;2022-12-18T11:21:52;0.10;99.90
7004;DHT22;3542;48.812;9.146;2022-12-18T11:26:46;-0.30;99.90
7004;DHT22;3542;48.812;9.146;2022-12-18T11:29:26;-0.30;99.90
7004;DHT22;3542;48.812;9.146;2022-12-18T11:32:19;-0.10;99.90
7004;DHT22;3542;48.812;9.146;2022-12-18T11:34:49;0.00;99.90
7004;DHT22;3542;48.812;9.146;2022-12-18T11:37:17;0.00;99.90
7004;DHT22;3542;48.812;9.146;2022-12-18T11:39:59;-0.10;99.90
7004;DHT22;3542;48.812;9.146;2022-12-18T11:48:03;-0.30;99.90
7004;DHT22;3542;48.812;9.146;2022-12-18T11:53:02;-0.30;99.90
7004;DHT22;3542;48.812;9.146;2022-12-18T11:55:41;-0.30;99.90
7004;DHT22;3542;48.812;9.146;2022-12-18T12:21:07;-0.70;99.90
7004;DHT22;3542;48.812;9.146;2022-12-18T12:29:39;-0.70;99.90
7004;DHT22;3542;48.812;9.146;2022-12-18T12:32:20;-0.70;99.90
7004;DHT22;3542;48.812;9.146;2022-12-18T12:34:57;-0.70;99.90
7004;DHT22;3542;48.812;9.146;2022-12-18T12:39:54;-0.80;99.90
7004;DHT22;3542;48.812;9.146;2022-12-18T12:42:31;-0.70;99.90
7004;DHT22;3542;48.812;9.146;2022-12-18T12:45:23;-0.70;99.90
7004;DHT22;3542;48.812;9.146;2022-12-18T12:47:52;-0.70;99.90
7004;DHT22;3542;48.812;9.146;2022-12-18T12:50:20;-0.70;99.90
7004;DHT22;3542;48.812;9.146;2022-12-18T12:52:54;-0.70;99.90
7004;DHT22;3542;48.812;9.146;2022-12-18T12:55:23;-0.60;99.90
7004;DHT22;3542;48.812;9.146;2022-12-18T12:58:14;-0.60;99.90
7004;DHT22;3542;48.812;9.146;2022-12-18T13:01:08;-0.50;99.90
7004;DHT22;3542;48.812;9.146;2022-12-18T13:03:48;-0.40;99.90
7004;DHT22;3542;48.812;9.146;2022-12-18T13:06:28;-0.30;99.90
7004;DHT22;3542;48.812;9.146;2022-12-18T13:09:00;-0.30;99.90
7004;DHT22;3542;48.812;9.146;2022-12-18T13:11:35;-0.20;99.90
7004;DHT22;3542;48.812;9.146;2022-12-18T13:14:29;-0.30;99.90
7004;DHT22;3542;48.812;9.146;2022-12-18T13:17:14;-0.20;99.90
7004;DHT22;3542;48.812;9.146;2022-12-18T13:19:40;-0.20;99.90
7004;DHT22;3542;48.812;9.146;2022-12-18T13:22:24;-0.10;99.90
7004;DHT22;3542;48.812;9.146;2022-12-18T13:24:50;-0.20;99.90
7004;DHT22;3542;48.812;9.146;2022-12-18T13:41:01;-0.40;99.90
7004;DHT22;3542;48.812;9.146;2022-12-18T13:43:35;-0.40;99.90
7004;DHT22;3542;48.812;9.146;2022-12-18T13:51:43;-0.30;99.90
7004;DHT22;3542;48.812;9.146;2022-12-18T13:56:56;-0.30;99.90
7004;DHT22;3542;48.812;9.146;2022-12-18T13:59:32;-0.30;99.90
7004;DHT22;3542;48.812;9.146;2022-12-18T14:02:01;-0.30;99.90
7004;DHT22;3542;48.812;9.146;2022-12-18T14:04:33;-0.30;99.90
7004;DHT22;3542;48.812;9.146;2022-12-18T14:07:06;-0.30;99.90
7004;DHT22;3542;48.812;9.146;2022-12-18T14:09:37;-0.50;99.90
7004;DHT22;3542;48.812;9.146;2022-12-18T14:12:05;-0.60;99.90
7004;DHT22;3542;48.812;9.146;2022-12-18T14:14:51;-0.60;99.90
7004;DHT22;3542;48.812;9.146;2022-12-18T14:17:18;-0.60;99.90
7004;DHT22;3542;48.812;9.146;2022-12-18T14:19:46;-0.70;99.90
7004;DHT22;3542;48.812;9.146;2022-12-18T14:22:24;-0.70;99.90
7004;DHT22;3542;48.812;9.146;2022-12-18T14:25:16;-0.70;99.90
7004;DHT22;3542;48.812;9.146;2022-12-18T14:27:46;-0.80;99.90
7004;DHT22;3542;48.812;9.146;2022-12-18T14:35:35;-0.90;99.90
7004;DHT22;3542;48.812;9.146;2022-12-18T14:38:34;-0.90;99.90
7004;DHT22;3542;48.812;9.146;2022-12-18T14:41:10;-0.90;99.90
7004;DHT22;3542;48.812;9.146;2022-12-18T14:43:38;-1.00;99.90
7004;DHT22;3542;48.812;9.146;2022-12-18T14:46:06;-1.10;99.90
7004;DHT22;3542;48.812;9.146;2022-12-18T14:48:50;-1.10;99.90
7004;DHT22;3542;48.812;9.146;2022-12-18T14:51:23;-1.20;99.90
7004;DHT22;3542;48.812;9.146;2022-12-18T14:56:22;-1.20;99.90
7004;DHT22;3542;48.812;9.146;2022-12-18T14:58:52;-1.20;99.90
7004;DHT22;3542;48.812;9.146;2022-12-18T15:01:20;-1.30;99.90
7004;DHT22;3542;48.812;9.146;2022-12-18T15:03:48;-1.30;99.90
7004;DHT22;3542;48.812;9.146;2022-12-18T15:06:21;-1.40;99.90
7004;DHT22;3542;48.812;9.146;2022-12-18T15:08:49;-1.50;99.90
7004;DHT22;3542;48.812;9.146;2022-12-18T15:11:42;-1.50;99.90
7004;DHT22;3542;48.812;9.146;2022-12-18T15:14:32;-1.60;99.90
7004;DHT22;3542;48.812;9.146;2022-12-18T15:17:03;-1.70;99.90
7004;DHT22;3542;48.812;9.146;2022-12-18T15:19:42;-1.70;99.90
7004;DHT22;3542;48.812;9.146;2022-12-18T15:22:23;-1.80;99.90
7004;DHT22;3542;48.812;9.146;2022-12-18T15:24:50;-1.80;99.90
7004;DHT22;3542;48.812;9.146;2022-12-18T15:27:30;-1.80;99.90
7004;DHT22;3542;48.812;9.146;2022-12-18T15:32:34;-1.90;99.90
7004;DHT22;3542;48.812;9.146;2022-12-18T15:35:23;-1.90;99.90
7004;DHT22;3542;48.812;9.146;2022-12-18T15:37:50;-1.90;99.90
7004;DHT22;3542;48.812;9.146;2022-12-18T15:40:19;-2.00;99.90
7004;DHT22;3542;48.812;9.146;2022-12-18T15:42:45;-2.00;99.90
7004;DHT22;3542;48.812;9.146;2022-12-18T15:45:29;-2.00;99.90
7004;DHT22;3542;48.812;9.146;2022-12-18T15:47:56;-2.10;99.90
7004;DHT22;3542;48.812;9.146;2022-12-18T15:50:21;-2.10;99.90
7004;DHT22;3542;48.812;9.146;2022-12-18T15:52:49;-2.10;99.90
7004;DHT22;3542;48.812;9.146;2022-12-18T15:55:22;-2.20;99.90
7004;DHT22;3542;48.812;9.146;2022-12-18T15:58:07;-2.20;99.90
7004;DHT22;3542;48.812;9.146;2022-12-18T16:00:38;-2.30;99.90
7004;DHT22;3542;48.812;9.146;2022-12-18T16:03:04;-2.30;99.90
7004;DHT22;3542;48.812;9.146;2022-12-18T16:05:31;-2.40;99.90
7004;DHT22;3542;48.812;9.146;2022-12-18T16:07:57;-2.50;99.90
7004;DHT22;3542;48.812;9.146;2022-12-18T16:10:24;-2.50;99.90
7004;DHT22;3542;48.812;9.146;2022-12-18T16:12:50;-2.60;99.90
7004;DHT22;3542;48.812;9.146;2022-12-18T16:15:16;-2.60;99.90
7004;DHT22;3542;48.812;9.146;2022-12-18T16:17:42;-2.70;99.90
7004;DHT22;3542;48.812;9.146;2022-12-18T16:20:16;-2.60;99.90
7004;DHT22;3542;48.812;9.146;2022-12-18T16:22:43;-2.70;99.90
7004;DHT22;3542;48.812;9.146;2022-12-18T16:25:22;-2.60;99.90
7004;DHT22;3542;48.812;9.146;2022-12-18T16:27:48;-2.60;99.90
7004;DHT22;3542;48.812;9.146;2022-12-18T16:30:15;-2.60;99.90
7004;DHT22;3542;48.812;9.146;2022-12-18T16:32:42;-2.60;99.90
7004;DHT22;3542;48.812;9.146;2022-12-18T16:35:10;-2.50;99.90
7004;DHT22;3542;48.812;9.146;2022-12-18T16:37:37;-2.50;99.90
7004;DHT22;3542;48.812;9.146;2022-12-18T16:40:03;-2.50;99.90
7004;DHT22;3542;48.812;9.146;2022-12-18T16:42:28;-2.60;99.90
7004;DHT22;3542;48.812;9.146;2022-12-18T16:44:54;-2.60;99.90
7004;DHT22;3542;48.812;9.146;2022-12-18T16:47:19;-2.60;99.90
7004;DHT22;3542;48.812;9.146;2022-12-18T16:49:45;-2.60;99.90
7004;DHT22;3542;48.812;9.146;2022-12-18T16:52:11;-2.60;99.90
7004;DHT22;3542;48.812;9.146;2022-12-18T16:54:36;-2.60;99.90
7004;DHT22;3542;48.812;9.146;2022-12-18T16:57:03;-2.60;99.90
7004;DHT22;3542;48.812;9.146;2022-12-18T16:59:29;-2.60;99.90
7004;DHT22;3542;48.812;9.146;2022-12-18T17:01:55;-2.70;99.90
7004;DHT22;3542;48.812;9.146;2022-12-18T17:04:22;-2.70;99.90
7004;DHT22;3542;48.812;9.146;2022-12-18T17:06:47;-2.70;99.90
7004;DHT22;3542;48.812;9.146;2022-12-18T17:09:17;-2.70;99.90
7004;DHT22;3542;48.812;9.146;2022-12-18T17:11:47;-2.60;99.90
7004;DHT22;3542;48.812;9.146;2022-12-18T17:14:14;-2.60;99.90
7004;DHT22;3542;48.812;9.146;2022-12-18T17:16:40;-2.50;99.90
7004;DHT22;3542;48.812;9.146;2022-12-18T17:19:06;-2.50;99.90
7004;DHT22;3542;48.812;9.146;2022-12-18T17:21:32;-2.50;99.90
7004;DHT22;3542;48.812;9.146;2022-12-18T17:24:01;-2.50;99.90
7004;DHT22;3542;48.812;9.146;2022-12-18T17:26:27;-2.50;99.90
7004;DHT22;3542;48.812;9.146;2022-12-18T17:28:55;-2.50;99.90
7004;DHT22;3542;48.812;9.146;2022-12-18T17:31:22;-2.40;99.90
7004;DHT22;3542;48.812;9.146;2022-12-18T17:33:48;-2.40;99.90
7004;DHT22;3542;48.812;9.146;2022-12-18T17:36:15;-2.30;99.90
7004;DHT22;3542;48.812;9.146;2022-12-18T17:38:41;-2.30;99.90
7004;DHT22;3542;48.812;9.146;2022-12-18T17:41:09;-2.30;99.90
7004;DHT22;3542;48.812;9.146;2022-12-18T17:43:36;-2.30;99.90
7004;DHT22;3542;48.812;9.146;2022-12-18T17:46:05;-2.20;99.90
7004;DHT22;3542;48.812;9.146;2022-12-18T17:48:31;-2.20;99.90
7004;DHT22;3542;48.812;9.146;2022-12-18T17:51:05;-2.20;99.90
7004;DHT22;3542;48.812;9.146;2022-12-18T17:53:40;-2.20;99.90
7004;DHT22;3542;48.812;9.146;2022-12-18T17:56:16;-2.20;99.90
7004;DHT22;3542;48.812;9.146;2022-12-18T17:58:46;-2.10;99.90
7004;DHT22;3542;48.812;9.146;2022-12-18T18:01:14;-2.20;99.90
7004;DHT22;3542;48.812;9.146;2022-12-18T18:03:40;-2.20;99.90
7004;DHT22;3542;48.812;9.146;2022-12-18T18:06:06;-2.20;99.90
7004;DHT22;3542;48.812;9.146;2022-12-18T18:08:33;-2.20;99.90
7004;DHT22;3542;48.812;9.146;2022-12-18T18:11:04;-2.20;99.90
7004;DHT22;3542;48.812;9.146;2022-12-18T18:13:50;-2.20;99.90
7004;DHT22;3542;48.812;9.146;2022-12-18T18:16:26;-2.20;99.90
7004;DHT22;3542;48.812;9.146;2022-12-18T18:18:52;-2.20;99.90
7004;DHT22;3542;48.812;9.146;2022-12-18T18:21:18;-2.20;99.90
7004;DHT22;3542;48.812;9.146;2022-12-18T18:23:45;-2.20;99.90
7004;DHT22;3542;48.812;9.146;2022-12-18T18:26:11;-2.10;99.90
7004;DHT22;3542;48.812;9.146;2022-12-18T18:28:40;-2.10;99.90
7004;DHT22;3542;48.812;9.146;2022-12-18T18:31:08;-2.20;99.90
7004;DHT22;3542;48.812;9.146;2022-12-18T18:33:34;-2.10;99.90
7004;DHT22;3542;48.812;9.146;2022-12-18T18:36:01;-2.10;99.90
7004;DHT22;3542;48.812;9.146;2022-12-18T18:38:27;-2.10;99.90
7004;DHT22;3542;48.812;9.146;2022-12-18T18:41:06;-2.10;99.90
7004;DHT22;3542;48.812;9.146;2022-12-18T18:43:32;-2.10;99.90
7004;DHT22;3542;48.812;9.146;2022-12-18T18:45:59;-2.10;99.90
7004;DHT22;3542;48.812;9.146;2022-12-18T18:48:26;-2.10;99.90
7004;DHT22;3542;48.812;9.146;2022-12-18T18:51:24;-2.10;99.90
7004;DHT22;3542;48.812;9.146;2022-12-18T18:53:51;-2.10;99.90
7004;DHT22;3542;48.812;9.146;2022-12-18T18:56:20;-2.10;99.90
7004;DHT22;3542;48.812;9.146;2022-12-18T18:58:46;-2.10;99.90
7004;DHT22;3542;48.812;9.146;2022-12-18T19:01:17;-2.10;99.90
7004;DHT22;3542;48.812;9.146;2022-12-18T19:03:43;-2.10;99.90
7004;DHT22;3542;48.812;9.146;2022-12-18T19:06:21;-2.10;99.90
7004;DHT22;3542;48.812;9.146;2022-12-18T19:08:48;-2.10;99.90
7004;DHT22;3542;48.812;9.146;2022-12-18T19:11:14;-2.10;99.90
7004;DHT22;3542;48.812;9.146;2022-12-18T19:13:59;-2.10;99.90
7004;DHT22;3542;48.812;9.146;2022-12-18T19:16:26;-2.10;99.90
7004;DHT22;3542;48.812;9.146;2022-12-18T19:18:53;-2.10;99.90
7004;DHT22;3542;48.812;9.146;2022-12-18T19:21:19;-2.00;99.90
7004;DHT22;3542;48.812;9.146;2022-12-18T19:23:45;-2.00;99.90
7004;DHT22;3542;48.812;9.146;2022-12-18T19:26:17;-2.00;99.90
7004;DHT22;3542;48.812;9.146;2022-12-18T19:28:43;-2.00;99.90
7004;DHT22;3542;48.812;9.146;2022-12-18T19:31:12;-1.90;99.90
7004;DHT22;3542;48.812;9.146;2022-12-18T19:33:40;-1.90;99.90